createdAt,value
2023-05-09T00:00:38.508Z,95463.00
2023-05-09T00:01:38.467Z,95463.00
2023-05-09T00:02:38.545Z,95465.00
2023-05-09T00:03:38.424Z,95461.00
2023-05-09T00:04:38.521Z,95459.00
2023-05-09T00:05:38.417Z,95457.00
2023-05-09T00:06:38.410Z,95457.00
2023-05-09T00:07:38.377Z,95457.00
2023-05-09T00:08:38.437Z,95457.00
2023-05-09T00:09:38.460Z,95457.00
2023-05-09T00:10:38.383Z,95455.00
2023-05-09T00:11:38.397Z,95453.00
2023-05-09T00:12:38.362Z,95451.00
2023-05-09T00:13:38.356Z,95449.00
2023-05-09T00:14:38.458Z,95447.00
2023-05-09T00:15:38.350Z,95445.00
2023-05-09T00:16:38.381Z,95444.00
2023-05-09T00:17:38.437Z,95444.00
2023-05-09T00:18:38.350Z,95444.00
2023-05-09T00:19:38.358Z,95444.00
2023-05-09T00:20:38.317Z,95438.00
2023-05-09T00:21:38.316Z,95440.00
2023-05-09T00:22:38.291Z,95442.00
2023-05-09T00:23:38.284Z,95440.00
2023-05-09T00:24:38.280Z,95442.00
2023-05-09T00:25:38.313Z,95442.00
2023-05-09T00:26:38.297Z,95444.00
2023-05-09T00:27:38.297Z,95442.00
2023-05-09T00:28:38.270Z,95442.00
2023-05-09T00:29:38.241Z,95444.00
2023-05-09T00:30:38.346Z,95442.00
2023-05-09T00:31:38.301Z,95440.00
2023-05-09T00:32:38.267Z,95442.00
2023-05-09T00:33:38.252Z,95440.00
2023-05-09T00:34:38.223Z,95440.00
2023-05-09T00:35:38.270Z,95430.00
2023-05-09T00:36:38.228Z,95430.00
2023-05-09T00:37:38.231Z,95440.00
2023-05-09T00:38:38.236Z,95430.00
2023-05-09T00:39:38.190Z,95428.00
2023-05-09T00:41:22.377Z,95428.00
2023-05-09T00:42:22.348Z,95426.00
2023-05-09T00:43:22.375Z,95426.00
2023-05-09T00:44:22.341Z,95426.00
2023-05-09T00:45:22.335Z,95426.00
2023-05-09T00:46:22.679Z,95424.00
2023-05-09T00:47:22.387Z,95424.00
2023-05-09T00:48:22.487Z,95424.00
2023-05-09T00:49:22.289Z,95422.00
2023-05-09T00:50:22.345Z,95422.00
2023-05-09T00:51:22.350Z,95418.00
2023-05-09T00:52:22.301Z,95416.00
2023-05-09T00:53:22.254Z,95414.00
2023-05-09T00:54:22.317Z,95414.00
2023-05-09T00:55:22.278Z,95414.00
2023-05-09T00:56:22.286Z,95412.00
2023-05-09T00:57:22.291Z,95414.00
2023-05-09T00:58:22.300Z,95412.00
2023-05-09T00:59:22.245Z,95410.00
2023-05-09T01:00:22.248Z,95412.00
2023-05-09T01:01:22.277Z,95412.00
2023-05-09T01:02:22.394Z,95412.00
2023-05-09T01:03:22.315Z,95410.00
2023-05-09T01:04:22.239Z,95410.00
2023-05-09T01:05:22.250Z,95410.00
2023-05-09T01:06:22.253Z,95410.00
2023-05-09T01:07:22.201Z,95408.00
2023-05-09T01:08:22.220Z,95406.00
2023-05-09T01:09:22.163Z,95402.00
2023-05-09T01:10:22.177Z,95402.00
2023-05-09T01:11:22.185Z,95402.00
2023-05-09T01:12:22.169Z,95400.00
2023-05-09T01:13:22.227Z,95400.00
2023-05-09T01:14:22.150Z,95398.00
2023-05-09T01:15:22.116Z,95400.00
2023-05-09T01:16:22.213Z,95398.00
2023-05-09T01:17:22.126Z,95400.00
2023-05-09T01:18:22.199Z,95400.00
2023-05-09T01:19:22.140Z,95398.00
2023-05-09T01:20:22.085Z,95396.00
2023-05-09T01:21:22.091Z,95396.00
2023-05-09T01:22:22.102Z,95394.00
2023-05-09T01:23:22.093Z,95391.00
2023-05-09T01:24:22.066Z,95392.00
2023-05-09T01:25:22.078Z,95391.00
2023-05-09T01:26:22.073Z,95391.00
2023-05-09T01:27:22.071Z,95389.00
2023-05-09T01:28:22.084Z,95391.00
2023-05-09T01:29:22.038Z,95391.00
2023-05-09T01:30:22.031Z,95391.00
2023-05-09T01:31:22.065Z,95392.00
2023-05-09T01:32:22.072Z,95392.00
2023-05-09T01:33:22.026Z,95392.00
2023-05-09T01:34:22.061Z,95396.00
2023-05-09T01:35:21.982Z,95392.00
2023-05-09T01:36:21.970Z,95392.00
2023-05-09T01:37:21.966Z,95392.00
2023-05-09T01:38:22.023Z,95394.00
2023-05-09T01:39:21.980Z,95391.00
2023-05-09T01:40:21.949Z,95391.00
2023-05-09T01:41:21.938Z,95389.00
2023-05-09T01:42:21.924Z,95392.00
2023-05-09T01:43:21.944Z,95392.00
2023-05-09T01:44:21.962Z,95391.00
2023-05-09T01:45:21.904Z,95391.00
2023-05-09T01:46:21.938Z,95389.00
2023-05-09T01:47:21.902Z,95394.00
2023-05-09T01:48:21.906Z,95391.00
2023-05-09T01:49:21.877Z,95392.00
2023-05-09T01:50:22.685Z,95392.00
2023-05-09T01:51:21.840Z,95391.00
2023-05-09T01:52:21.850Z,95389.00
2023-05-09T01:53:21.848Z,95387.00
2023-05-09T01:54:21.850Z,95389.00
2023-05-09T01:55:21.893Z,95387.00
2023-05-09T01:56:21.869Z,95389.00
2023-05-09T01:57:21.837Z,95389.00
2023-05-09T01:58:21.844Z,95389.00
2023-05-09T01:59:21.805Z,95387.00
2023-05-09T02:00:21.813Z,95387.00
2023-05-09T02:01:21.863Z,95385.00
2023-05-09T02:02:22.120Z,95385.00
2023-05-09T02:03:21.804Z,95383.00
2023-05-09T02:04:21.787Z,95385.00
2023-05-09T02:05:21.747Z,95377.00
2023-05-09T02:06:21.855Z,95377.00
2023-05-09T02:07:21.768Z,95383.00
2023-05-09T02:08:21.731Z,95383.00
2023-05-09T02:09:21.739Z,95377.00
2023-05-09T02:10:21.751Z,95377.00
2023-05-09T02:11:21.759Z,95377.00
2023-05-09T02:12:21.728Z,95379.00
2023-05-09T02:13:21.869Z,95377.00
2023-05-09T02:14:21.717Z,95377.00
2023-05-09T02:15:21.747Z,95375.00
2023-05-09T02:16:21.743Z,95377.00
2023-05-09T02:17:22.083Z,95375.00
2023-05-09T02:18:21.698Z,95373.00
2023-05-09T02:19:21.675Z,95371.00
2023-05-09T02:20:21.641Z,95371.00
2023-05-09T02:21:21.652Z,95373.00
2023-05-09T02:22:21.718Z,95371.00
2023-05-09T02:23:21.637Z,95369.00
2023-05-09T02:24:21.674Z,95373.00
2023-05-09T02:25:21.643Z,95371.00
2023-05-09T02:26:21.618Z,95369.00
2023-05-09T02:27:21.638Z,95369.00
2023-05-09T02:28:21.624Z,95367.00
2023-05-09T02:29:21.598Z,95369.00
2023-05-09T02:30:21.621Z,95363.00
2023-05-09T02:31:21.613Z,95365.00
2023-05-09T02:32:22.087Z,95363.00
2023-05-09T02:33:21.579Z,95363.00
2023-05-09T02:34:21.570Z,95363.00
2023-05-09T02:35:21.559Z,95361.00
2023-05-09T02:36:21.544Z,95361.00
2023-05-09T02:37:21.555Z,95359.00
2023-05-09T02:38:21.635Z,95359.00
2023-05-09T02:39:21.542Z,95359.00
2023-05-09T02:40:21.510Z,95361.00
2023-05-09T02:41:21.527Z,95361.00
2023-05-09T02:42:21.502Z,95361.00
2023-05-09T02:43:21.498Z,95361.00
2023-05-09T02:44:21.505Z,95359.00
2023-05-09T02:45:21.478Z,95361.00
2023-05-09T02:46:21.524Z,95359.00
2023-05-09T02:47:21.457Z,95359.00
2023-05-09T02:48:21.463Z,95361.00
2023-05-09T02:49:31.425Z,95357.00
2023-05-09T02:50:22.471Z,95355.00
2023-05-09T02:51:21.458Z,95353.00
2023-05-09T02:52:21.415Z,95357.00
2023-05-09T02:53:21.427Z,95353.00
2023-05-09T02:54:21.518Z,95353.00
2023-05-09T02:55:21.440Z,95355.00
2023-05-09T02:56:21.461Z,95353.00
2023-05-09T02:57:21.599Z,95355.00
2023-05-09T02:58:21.405Z,95353.00
2023-05-09T02:59:21.408Z,95353.00
2023-05-09T03:00:21.388Z,95353.00
2023-05-09T03:01:21.446Z,95351.00
2023-05-09T03:02:21.663Z,95353.00
2023-05-09T03:03:21.438Z,95351.00
2023-05-09T03:04:21.361Z,95347.00
2023-05-09T03:05:21.343Z,95349.00
2023-05-09T03:06:21.364Z,95347.00
2023-05-09T03:07:21.370Z,95347.00
2023-05-09T03:08:21.343Z,95349.00
2023-05-09T03:09:21.321Z,95347.00
2023-05-09T03:10:21.408Z,95349.00
2023-05-09T03:11:21.338Z,95349.00
2023-05-09T03:12:21.360Z,95347.00
2023-05-09T03:13:21.404Z,95347.00
2023-05-09T03:14:21.309Z,95347.00
2023-05-09T03:15:21.269Z,95344.00
2023-05-09T03:16:21.342Z,95344.00
2023-05-09T03:17:21.455Z,95342.00
2023-05-09T03:18:21.292Z,95344.00
2023-05-09T03:19:21.256Z,95344.00
2023-05-09T03:20:21.248Z,95340.00
2023-05-09T03:21:21.260Z,95342.00
2023-05-09T03:22:21.240Z,95344.00
2023-05-09T03:23:21.247Z,95342.00
2023-05-09T03:24:21.282Z,95342.00
2023-05-09T03:25:21.242Z,95342.00
2023-05-09T03:26:21.332Z,95342.00
2023-05-09T03:27:21.652Z,95344.00
2023-05-09T03:28:21.241Z,95344.00
2023-05-09T03:29:21.244Z,95344.00
2023-05-09T03:30:21.285Z,95344.00
2023-05-09T03:31:21.317Z,95344.00
2023-05-09T03:32:21.338Z,95344.00
2023-05-09T03:33:21.329Z,95344.00
2023-05-09T03:34:21.362Z,95344.00
2023-05-09T03:35:21.358Z,95344.00
2023-05-09T03:36:21.359Z,95342.00
2023-05-09T03:37:21.418Z,95342.00
2023-05-09T03:38:22.139Z,95340.00
2023-05-09T03:39:21.437Z,95342.00
2023-05-09T03:40:21.435Z,95342.00
2023-05-09T03:41:21.451Z,95342.00
2023-05-09T03:42:21.571Z,95342.00
2023-05-09T03:43:21.455Z,95340.00
2023-05-09T03:44:21.486Z,95344.00
2023-05-09T03:45:21.498Z,95340.00
2023-05-09T03:46:21.502Z,95340.00
2023-05-09T03:47:21.507Z,95340.00
2023-05-09T03:48:21.499Z,95338.00
2023-05-09T03:49:21.498Z,95338.00
2023-05-09T03:50:21.487Z,95336.00
2023-05-09T03:51:21.529Z,95338.00
2023-05-09T03:52:21.623Z,95334.00
2023-05-09T03:53:21.554Z,95336.00
2023-05-09T03:54:21.565Z,95336.00
2023-05-09T03:55:21.605Z,95340.00
2023-05-09T03:56:21.614Z,95336.00
2023-05-09T03:57:21.592Z,95336.00
2023-05-09T03:58:21.713Z,95336.00
2023-05-09T03:59:21.675Z,95338.00
2023-05-09T04:00:21.655Z,95338.00
2023-05-09T04:01:21.640Z,95338.00
2023-05-09T04:02:21.750Z,95336.00
2023-05-09T04:03:21.748Z,95338.00
2023-05-09T04:04:21.710Z,95340.00
2023-05-09T04:05:21.712Z,95338.00
2023-05-09T04:06:21.721Z,95336.00
2023-05-09T04:07:21.716Z,95340.00
2023-05-09T04:08:21.777Z,95340.00
2023-05-09T04:09:21.757Z,95340.00
2023-05-09T04:10:21.772Z,95340.00
2023-05-09T04:11:21.771Z,95340.00
2023-05-09T04:12:21.802Z,95342.00
2023-05-09T04:13:21.901Z,95342.00
2023-05-09T04:14:21.917Z,95344.00
2023-05-09T04:15:21.858Z,95340.00
2023-05-09T04:16:21.890Z,95340.00
2023-05-09T04:17:22.174Z,95344.00
2023-05-09T04:18:21.836Z,95338.00
2023-05-09T04:19:21.884Z,95338.00
2023-05-09T04:20:21.890Z,95338.00
2023-05-09T04:21:21.884Z,95342.00
2023-05-09T04:22:21.932Z,95340.00
2023-05-09T04:23:21.923Z,95338.00
2023-05-09T04:24:21.908Z,95338.00
2023-05-09T04:25:21.942Z,95340.00
2023-05-09T04:26:22.027Z,95340.00
2023-05-09T04:27:22.142Z,95342.00
2023-05-09T04:28:21.986Z,95342.00
2023-05-09T04:29:22.051Z,95344.00
2023-05-09T04:30:22.133Z,95345.00
2023-05-09T04:31:22.099Z,95342.00
2023-05-09T04:32:22.070Z,95344.00
2023-05-09T04:33:22.076Z,95345.00
2023-05-09T04:34:22.102Z,95349.00
2023-05-09T04:35:22.296Z,95347.00
2023-05-09T04:36:22.130Z,95347.00
2023-05-09T04:37:22.648Z,95344.00
2023-05-09T04:38:22.152Z,95344.00
2023-05-09T04:39:22.160Z,95344.00
2023-05-09T04:40:22.185Z,95342.00
2023-05-09T04:41:22.208Z,95344.00
2023-05-09T04:42:22.636Z,95340.00
2023-05-09T04:43:22.255Z,95336.00
2023-05-09T04:44:22.227Z,95338.00
2023-05-09T04:45:22.249Z,95338.00
2023-05-09T04:46:24.994Z,95338.00
2023-05-09T04:47:22.722Z,95334.00
2023-05-09T04:48:22.255Z,95336.00
2023-05-09T04:49:22.221Z,95332.00
2023-05-09T04:50:22.232Z,95334.00
2023-05-09T04:51:22.221Z,95340.00
2023-05-09T04:52:22.221Z,95338.00
2023-05-09T04:53:22.670Z,95338.00
2023-05-09T04:54:22.200Z,95340.00
2023-05-09T04:55:22.192Z,95340.00
2023-05-09T04:56:22.179Z,95338.00
2023-05-09T04:57:22.173Z,95340.00
2023-05-09T04:58:22.185Z,95344.00
2023-05-09T04:59:22.233Z,95342.00
2023-05-09T05:00:22.192Z,95342.00
2023-05-09T05:01:22.180Z,95340.00
2023-05-09T05:02:22.313Z,95344.00
2023-05-09T05:03:22.143Z,95342.00
2023-05-09T05:04:22.182Z,95342.00
2023-05-09T05:05:25.163Z,95344.00
2023-05-09T05:06:22.140Z,95344.00
2023-05-09T05:07:22.122Z,95344.00
2023-05-09T05:08:22.150Z,95345.00
2023-05-09T05:09:22.098Z,95340.00
2023-05-09T05:10:22.178Z,95342.00
2023-05-09T05:11:22.099Z,95340.00
2023-05-09T05:12:22.079Z,95340.00
2023-05-09T05:13:22.174Z,95338.00
2023-05-09T05:14:22.064Z,95336.00
2023-05-09T05:15:22.061Z,95338.00
2023-05-09T05:16:22.100Z,95336.00
2023-05-09T05:17:22.048Z,95336.00
2023-05-09T05:18:22.141Z,95338.00
2023-05-09T05:19:22.051Z,95340.00
2023-05-09T05:20:22.037Z,95338.00
2023-05-09T05:21:22.004Z,95336.00
2023-05-09T05:22:22.034Z,95338.00
2023-05-09T05:23:22.038Z,95338.00
2023-05-09T05:24:22.008Z,95334.00
2023-05-09T05:25:22.047Z,95336.00
2023-05-09T05:26:22.005Z,95340.00
2023-05-09T05:27:22.007Z,95340.00
2023-05-09T05:28:21.988Z,95338.00
2023-05-09T05:29:22.012Z,95338.00
2023-05-09T05:30:21.980Z,95338.00
2023-05-09T05:31:21.960Z,95334.00
2023-05-09T05:32:21.928Z,95340.00
2023-05-09T05:33:21.972Z,95340.00
2023-05-09T05:34:22.045Z,95340.00
2023-05-09T05:35:21.978Z,95342.00
2023-05-09T05:36:21.921Z,95344.00
2023-05-09T05:37:21.949Z,95344.00
2023-05-09T05:38:21.952Z,95344.00
2023-05-09T05:39:21.954Z,95344.00
2023-05-09T05:40:21.906Z,95345.00
2023-05-09T05:41:21.890Z,95345.00
2023-05-09T05:42:21.858Z,95344.00
2023-05-09T05:43:22.188Z,95345.00
2023-05-09T05:44:21.887Z,95344.00
2023-05-09T05:45:21.895Z,95344.00
2023-05-09T05:46:21.932Z,95347.00
2023-05-09T05:47:21.836Z,95344.00
2023-05-09T05:48:21.847Z,95344.00
2023-05-09T05:49:21.869Z,95342.00
2023-05-09T05:50:21.900Z,95342.00
2023-05-09T05:51:21.820Z,95342.00
2023-05-09T05:52:21.772Z,95342.00
2023-05-09T05:53:21.846Z,95340.00
2023-05-09T05:54:21.800Z,95340.00
2023-05-09T05:55:21.768Z,95342.00
2023-05-09T05:56:21.789Z,95340.00
2023-05-09T05:57:21.786Z,95338.00
2023-05-09T05:58:22.190Z,95340.00
2023-05-09T05:59:21.778Z,95336.00
2023-05-09T06:00:21.802Z,95336.00
2023-05-09T06:01:21.790Z,95336.00
2023-05-09T06:02:21.798Z,95338.00
2023-05-09T06:03:22.294Z,95334.00
2023-05-09T06:04:21.986Z,95332.00
2023-05-09T06:05:21.697Z,95332.00
2023-05-09T06:06:21.785Z,95330.00
2023-05-09T06:07:21.686Z,95330.00
2023-05-09T06:08:22.146Z,95326.00
2023-05-09T06:09:21.691Z,95328.00
2023-05-09T06:10:21.694Z,95324.00
2023-05-09T06:11:21.689Z,95326.00
2023-05-09T06:12:21.687Z,95320.00
2023-05-09T06:13:22.181Z,95324.00
2023-05-09T06:14:21.673Z,95320.00
2023-05-09T06:15:21.690Z,95320.00
2023-05-09T06:16:21.660Z,95322.00
2023-05-09T06:17:21.621Z,95324.00
2023-05-09T06:18:21.632Z,95324.00
2023-05-09T06:19:21.651Z,95324.00
2023-05-09T06:20:21.608Z,95322.00
2023-05-09T06:21:21.633Z,95322.00
2023-05-09T06:22:21.565Z,95322.00
2023-05-09T06:23:21.561Z,95322.00
2023-05-09T06:24:34.340Z,95320.00
2023-05-09T06:25:22.568Z,95324.00
2023-05-09T06:26:21.561Z,95326.00
2023-05-09T06:27:21.582Z,95326.00
2023-05-09T06:28:21.541Z,95322.00
2023-05-09T06:29:21.502Z,95324.00
2023-05-09T06:30:26.089Z,95322.00
2023-05-09T06:31:24.205Z,95320.00
2023-05-09T06:32:21.531Z,95318.00
2023-05-09T06:33:22.163Z,95316.00
2023-05-09T06:34:21.497Z,95316.00
2023-05-09T06:35:21.508Z,95314.00
2023-05-09T06:36:21.462Z,95310.00
2023-05-09T06:37:21.457Z,95310.00
2023-05-09T06:38:21.756Z,95310.00
2023-05-09T06:39:21.468Z,95310.00
2023-05-09T06:40:21.512Z,95310.00
2023-05-09T06:41:21.520Z,95312.00
2023-05-09T06:42:21.460Z,95310.00
2023-05-09T06:43:21.497Z,95310.00
2023-05-09T06:44:21.485Z,95310.00
2023-05-09T06:45:21.548Z,95312.00
2023-05-09T06:46:21.441Z,95308.00
2023-05-09T06:47:21.550Z,95308.00
2023-05-09T06:48:21.400Z,95306.00
2023-05-09T06:49:21.386Z,95306.00
2023-05-09T06:50:21.424Z,95305.00
2023-05-09T06:51:21.412Z,95306.00
2023-05-09T06:52:21.392Z,95308.00
2023-05-09T06:53:21.383Z,95303.00
2023-05-09T06:54:21.456Z,95305.00
2023-05-09T06:55:21.370Z,95310.00
2023-05-09T06:56:21.352Z,95308.00
2023-05-09T06:57:21.379Z,95303.00
2023-05-09T06:58:21.335Z,95297.00
2023-05-09T06:59:21.376Z,95305.00
2023-05-09T07:00:21.301Z,95295.00
2023-05-09T07:01:21.413Z,95300.00
2023-05-09T07:02:21.344Z,95295.00
2023-05-09T07:03:21.346Z,95298.00
2023-05-09T07:04:21.310Z,95298.00
2023-05-09T07:05:21.385Z,95298.00
2023-05-09T07:06:21.340Z,95300.00
2023-05-09T07:07:21.257Z,95300.00
2023-05-09T07:08:21.337Z,95300.00
2023-05-09T07:09:21.312Z,95298.00
2023-05-09T07:10:21.368Z,95298.00
2023-05-09T07:11:21.245Z,95298.00
2023-05-09T07:12:21.220Z,95298.00
2023-05-09T07:13:21.411Z,95298.00
2023-05-09T07:14:21.278Z,95300.00
2023-05-09T07:15:32.982Z,95297.00
2023-05-09T07:16:22.283Z,95295.00
2023-05-09T07:17:23.698Z,95295.00
2023-05-09T07:18:21.205Z,95295.00
2023-05-09T07:19:21.215Z,95293.00
2023-05-09T07:20:21.210Z,95293.00
2023-05-09T07:21:21.235Z,95289.00
2023-05-09T07:22:21.256Z,95287.00
2023-05-09T07:23:21.201Z,95289.00
2023-05-09T07:24:21.172Z,95291.00
2023-05-09T07:25:21.137Z,95289.00
2023-05-09T07:26:21.234Z,95287.00
2023-05-09T07:27:21.326Z,95287.00
2023-05-09T07:28:21.179Z,95285.00
2023-05-09T07:29:21.140Z,95281.00
2023-05-09T07:30:21.124Z,95283.00
2023-05-09T07:31:21.142Z,95279.00
2023-05-09T07:32:21.090Z,95281.00
2023-05-09T07:33:21.216Z,95279.00
2023-05-09T07:34:21.121Z,95277.00
2023-05-09T07:35:21.128Z,95275.00
2023-05-09T07:36:21.081Z,95275.00
2023-05-09T07:37:21.058Z,95271.00
2023-05-09T07:38:21.208Z,95271.00
2023-05-09T07:39:21.113Z,95269.00
2023-05-09T07:40:21.060Z,95273.00
2023-05-09T07:41:21.064Z,95271.00
2023-05-09T07:42:21.127Z,95271.00
2023-05-09T07:43:21.037Z,95273.00
2023-05-09T07:44:21.053Z,95269.00
2023-05-09T07:45:23.521Z,95269.00
2023-05-09T07:46:21.201Z,95271.00
2023-05-09T07:47:20.994Z,95269.00
2023-05-09T07:48:21.190Z,95261.00
2023-05-09T07:49:21.021Z,95265.00
2023-05-09T07:50:21.008Z,95265.00
2023-05-09T07:51:20.994Z,95256.00
2023-05-09T07:52:20.961Z,95259.00
2023-05-09T07:53:20.962Z,95261.00
2023-05-09T07:54:20.950Z,95254.00
2023-05-09T07:55:21.063Z,95254.00
2023-05-09T07:56:20.960Z,95250.00
2023-05-09T07:57:21.008Z,95250.00
2023-05-09T07:58:21.034Z,95248.00
2023-05-09T07:59:20.904Z,95250.00
2023-05-09T08:00:20.910Z,95248.00
2023-05-09T08:01:20.925Z,95250.00
2023-05-09T08:02:20.972Z,95246.00
2023-05-09T08:03:21.091Z,95242.00
2023-05-09T08:04:20.894Z,95244.00
2023-05-09T08:05:20.872Z,95240.00
2023-05-09T08:06:20.887Z,95240.00
2023-05-09T08:07:20.870Z,95236.00
2023-05-09T08:08:20.874Z,95236.00
2023-05-09T08:09:20.839Z,95232.00
2023-05-09T08:10:20.868Z,95232.00
2023-05-09T08:11:20.822Z,95232.00
2023-05-09T08:12:20.852Z,95232.00
2023-05-09T08:13:20.940Z,95226.00
2023-05-09T08:14:20.906Z,95230.00
2023-05-09T08:15:20.798Z,95228.00
2023-05-09T08:16:20.860Z,95228.00
2023-05-09T08:17:20.843Z,95226.00
2023-05-09T08:18:20.814Z,95222.00
2023-05-09T08:19:20.842Z,95220.00
2023-05-09T08:20:20.781Z,95216.00
2023-05-09T08:21:22.218Z,95214.00
2023-05-09T08:22:20.804Z,95212.00
2023-05-09T08:23:21.257Z,95209.00
2023-05-09T08:24:20.770Z,95207.00
2023-05-09T08:25:20.869Z,95209.00
2023-05-09T08:26:20.756Z,95207.00
2023-05-09T08:27:20.725Z,95207.00
2023-05-09T08:28:20.778Z,95203.00
2023-05-09T08:29:20.741Z,95201.00
2023-05-09T08:30:20.805Z,95197.00
2023-05-09T08:31:20.728Z,95203.00
2023-05-09T08:32:20.721Z,95203.00
2023-05-09T08:33:20.700Z,95199.00
2023-05-09T08:34:20.708Z,95197.00
2023-05-09T08:35:20.719Z,95195.00
2023-05-09T08:36:20.712Z,95193.00
2023-05-09T08:37:20.759Z,95187.00
2023-05-09T08:38:20.796Z,95185.00
2023-05-09T08:39:21.239Z,95181.00
2023-05-09T08:40:20.919Z,95181.00
2023-05-09T08:41:20.972Z,95163.00
2023-05-09T08:42:21.146Z,95165.00
2023-05-09T08:43:21.096Z,95167.00
2023-05-09T08:44:21.171Z,95161.00
2023-05-09T08:45:21.211Z,95154.00
2023-05-09T08:46:21.405Z,95167.00
2023-05-09T08:47:21.330Z,95189.00
2023-05-09T08:48:21.360Z,95163.00
2023-05-09T08:49:21.749Z,95161.00
2023-05-09T08:50:21.533Z,95156.00
2023-05-09T08:51:21.518Z,95152.00
2023-05-09T08:52:21.566Z,95154.00
2023-05-09T08:53:21.625Z,95150.00
2023-05-09T08:54:22.906Z,95152.00
2023-05-09T08:55:21.740Z,95156.00
2023-05-09T08:56:21.793Z,95150.00
2023-05-09T08:57:21.855Z,95148.00
2023-05-09T08:58:21.918Z,95146.00
2023-05-09T08:59:21.971Z,95146.00
2023-05-09T09:00:22.153Z,95148.00
2023-05-09T09:01:22.121Z,95148.00
2023-05-09T09:02:22.231Z,95140.00
2023-05-09T09:03:22.183Z,95144.00
2023-05-09T09:04:22.293Z,95138.00
2023-05-09T09:05:40.283Z,95134.00
2023-05-09T09:06:23.312Z,95132.00
2023-05-09T09:07:22.247Z,95132.00
2023-05-09T09:08:22.285Z,95126.00
2023-05-09T09:09:22.760Z,95124.00
2023-05-09T09:10:22.244Z,95120.00
2023-05-09T09:11:22.229Z,95118.00
2023-05-09T09:12:22.237Z,95118.00
2023-05-09T09:13:22.220Z,95118.00
2023-05-09T09:14:22.236Z,95118.00
2023-05-09T09:15:22.290Z,95116.00
2023-05-09T09:16:22.311Z,95112.00
2023-05-09T09:17:22.369Z,95112.00
2023-05-09T09:18:22.479Z,95109.00
2023-05-09T09:19:22.463Z,95105.00
2023-05-09T09:20:22.548Z,95099.00
2023-05-09T09:21:22.548Z,95097.00
2023-05-09T09:22:22.593Z,95097.00
2023-05-09T09:23:22.643Z,95093.00
2023-05-09T09:24:22.717Z,95097.00
2023-05-09T09:25:22.749Z,95095.00
2023-05-09T09:26:22.934Z,95093.00
2023-05-09T09:27:22.878Z,95089.00
2023-05-09T09:28:22.941Z,95095.00
2023-05-09T09:29:23.281Z,95091.00
2023-05-09T09:30:22.998Z,95091.00
2023-05-09T09:31:23.094Z,95087.00
2023-05-09T09:32:23.145Z,95083.00
2023-05-09T09:33:23.182Z,95081.00
2023-05-09T09:34:23.333Z,95079.00
2023-05-09T09:35:23.319Z,95077.00
2023-05-09T09:36:23.313Z,95077.00
2023-05-09T09:37:23.354Z,95073.00
2023-05-09T09:38:23.448Z,95070.00
2023-05-09T09:39:23.753Z,95068.00
2023-05-09T09:40:23.553Z,95072.00
2023-05-09T09:41:23.549Z,95072.00
2023-05-09T09:42:23.654Z,95073.00
2023-05-09T09:43:23.665Z,95068.00
2023-05-09T09:44:23.774Z,95066.00
2023-05-09T09:45:23.784Z,95062.00
2023-05-09T09:46:23.814Z,95060.00
2023-05-09T09:47:23.904Z,95056.00
2023-05-09T09:48:23.903Z,95056.00
2023-05-09T09:49:24.265Z,95054.00
2023-05-09T09:50:24.093Z,95050.00
2023-05-09T09:51:24.069Z,95050.00
2023-05-09T09:52:24.104Z,95048.00
2023-05-09T09:53:24.152Z,95050.00
2023-05-09T09:54:24.254Z,95040.00
2023-05-09T09:55:24.299Z,95042.00
2023-05-09T09:56:24.305Z,95038.00
2023-05-09T09:57:24.396Z,95034.00
2023-05-09T09:58:24.433Z,95032.00
2023-05-09T09:59:24.505Z,95030.00
2023-05-09T10:00:24.568Z,95028.00
2023-05-09T10:01:24.628Z,95026.00
2023-05-09T10:02:24.651Z,95025.00
2023-05-09T10:03:24.769Z,95021.00
2023-05-09T10:04:24.754Z,95019.00
2023-05-09T10:05:24.774Z,95021.00
2023-05-09T10:06:24.885Z,95017.00
2023-05-09T10:07:24.781Z,95015.00
2023-05-09T10:08:24.818Z,95011.00
2023-05-09T10:09:25.278Z,95007.00
2023-05-09T10:10:24.816Z,95011.00
2023-05-09T10:11:24.817Z,95013.00
2023-05-09T10:12:24.809Z,95005.00
2023-05-09T10:13:24.893Z,95007.00
2023-05-09T10:14:24.861Z,95005.00
2023-05-09T10:15:24.811Z,94999.00
2023-05-09T10:16:31.959Z,94999.00
2023-05-09T10:17:25.880Z,94999.00
2023-05-09T10:18:24.906Z,94991.00
2023-05-09T10:19:25.251Z,94989.00
2023-05-09T10:20:24.786Z,94985.00
2023-05-09T10:21:24.797Z,94985.00
2023-05-09T10:22:24.866Z,94981.00
2023-05-09T10:23:24.774Z,94979.00
2023-05-09T10:24:24.779Z,94978.00
2023-05-09T10:25:24.784Z,94976.00
2023-05-09T10:26:24.716Z,94978.00
2023-05-09T10:27:24.723Z,94970.00
2023-05-09T10:28:24.687Z,94968.00
2023-05-09T10:29:24.715Z,94966.00
2023-05-09T10:30:24.687Z,94968.00
2023-05-09T10:31:24.703Z,94962.00
2023-05-09T10:32:24.754Z,94962.00
2023-05-09T10:33:24.674Z,94960.00
2023-05-09T10:34:24.677Z,94962.00
2023-05-09T10:35:24.664Z,94960.00
2023-05-09T10:36:24.690Z,94958.00
2023-05-09T10:37:24.657Z,94956.00
2023-05-09T10:38:24.743Z,94954.00
2023-05-09T10:39:24.636Z,94952.00
2023-05-09T10:40:24.658Z,94952.00
2023-05-09T10:41:24.647Z,94950.00
2023-05-09T10:42:24.624Z,94944.00
2023-05-09T10:43:24.665Z,94944.00
2023-05-09T10:44:24.745Z,94942.00
2023-05-09T10:45:24.728Z,94940.00
2023-05-09T10:46:24.819Z,94936.00
2023-05-09T10:47:24.802Z,94934.00
2023-05-09T10:48:24.819Z,94931.00
2023-05-09T10:49:24.850Z,94931.00
2023-05-09T10:50:24.855Z,94927.00
2023-05-09T10:51:24.889Z,94927.00
2023-05-09T10:52:24.914Z,94925.00
2023-05-09T10:53:25.764Z,94913.00
2023-05-09T10:54:25.095Z,94915.00
2023-05-09T10:55:24.993Z,94909.00
2023-05-09T10:56:25.025Z,94909.00
2023-05-09T10:57:25.049Z,94903.00
2023-05-09T10:58:25.110Z,94903.00
2023-05-09T10:59:25.253Z,94901.00
2023-05-09T11:00:25.143Z,94905.00
2023-05-09T11:01:25.196Z,94897.00
2023-05-09T11:02:25.194Z,94897.00
2023-05-09T11:03:25.304Z,94893.00
2023-05-09T11:04:25.264Z,94889.00
2023-05-09T11:05:25.241Z,94886.00
2023-05-09T11:06:25.259Z,94884.00
2023-05-09T11:07:25.277Z,94880.00
2023-05-09T11:08:25.308Z,94876.00
2023-05-09T11:09:25.316Z,94874.00
2023-05-09T11:10:25.424Z,94870.00
2023-05-09T11:11:25.416Z,94868.00
2023-05-09T11:12:25.382Z,94866.00
2023-05-09T11:13:25.489Z,94864.00
2023-05-09T11:14:25.787Z,94864.00
2023-05-09T11:15:25.442Z,94862.00
2023-05-09T11:16:25.457Z,94860.00
2023-05-09T11:17:25.496Z,94860.00
2023-05-09T11:18:25.458Z,94856.00
2023-05-09T11:19:25.519Z,94856.00
2023-05-09T11:20:25.506Z,94854.00
2023-05-09T11:21:25.504Z,94850.00
2023-05-09T11:22:25.494Z,94850.00
2023-05-09T11:23:25.553Z,94844.00
2023-05-09T11:24:25.540Z,94844.00
2023-05-09T11:25:25.564Z,94840.00
2023-05-09T11:26:25.650Z,94842.00
2023-05-09T11:27:25.703Z,94839.00
2023-05-09T11:28:25.598Z,94835.00
2023-05-09T11:29:25.873Z,94831.00
2023-05-09T11:30:25.671Z,94833.00
2023-05-09T11:31:25.666Z,94831.00
2023-05-09T11:32:25.696Z,94831.00
2023-05-09T11:33:25.683Z,94825.00
2023-05-09T11:34:25.730Z,94825.00
2023-05-09T11:35:25.750Z,94823.00
2023-05-09T11:36:25.724Z,94823.00
2023-05-09T11:37:25.748Z,94823.00
2023-05-09T11:38:25.792Z,94821.00
2023-05-09T11:39:26.272Z,94819.00
2023-05-09T11:40:25.796Z,94821.00
2023-05-09T11:41:26.706Z,94813.00
2023-05-09T11:42:25.918Z,94811.00
2023-05-09T11:43:25.869Z,94809.00
2023-05-09T11:44:25.915Z,94805.00
2023-05-09T11:45:25.921Z,94805.00